METAR
METAR

METAR

METAR EPSY 311500Z 32008KT 300V360 9999 SCT035TCU 02/M05 Q1023=
TAF AMD EPSY 311500Z 3115/3124 CNL=
Ostrzeżenia
Ostrzeżenia

Ostrzeżenia

OSTRZEZENIE LOTNISKOWE DLA LOTNISKA SZYMANY WAZNOSC OD: 08:30 31-03-2020 UTC DO: 09:30 31-03-2020 UTC ZJAWISKO: PRZEJSCIE PRZEZ 0 ST. C. PRZEBIEG: NA LOTNISKU EPSY PROGNOZOWANE JEST PRZEJSCIE TEMPERATURY POWIETRZA PRZEZ 0 ST. C. W KIERUNKU DODATNIM. OPRACOWAL: M. JASZCZYK DNIA 31-03-2020 07:50 UTC NR OSTRZEZENIE: 130/2020.